Time,TemperatureF,DewpointF,PressureIn,WindDirection,WindDirectionDegrees,WindSpeedMPH,WindSpeedGustMPH,Humidity,HourlyPrecipIn,Conditions,Clouds,dailyrainin,SolarRadiationWatts/m^2,SoftwareType,DateUTC
2013-02-19 00:10:00,27.9,27.0,30.09,NE,54,0.0,-999.0,95,-99.99,,,0.00,0,weatherlink.com 1.10,2013-02-19 00:10:00,
2013-02-19 00:26:00,27.4,26.0,30.09,NE,54,0.0,-999.0,95,-99.99,,,0.00,0,weatherlink.com 1.10,2013-02-19 00:26:00,
2013-02-19 00:41:00,27.8,27.0,30.09,NE,54,0.0,-999.0,95,-99.99,,,0.00,0,weatherlink.com 1.10,2013-02-19 00:41:00,
2013-02-19 00:56:00,27.3,26.0,30.09,NE,54,0.0,-999.0,94,-99.99,,,0.00,0,weatherlink.com 1.10,2013-02-19 00:56:00,
2013-02-19 01:10:00,27.7,27.0,30.09,NE,54,0.0,-999.0,95,-99.99,,,0.00,0,weatherlink.com 1.10,2013-02-19 01:10:00,
2013-02-19 01:26:00,26.9,25.0,30.09,NE,54,2.0,-999.0,94,-99.99,,,0.00,0,weatherlink.com 1.10,2013-02-19 01:26:00,
2013-02-19 01:41:00,26.9,26.0,30.09,NE,54,1.0,-999.0,95,-99.99,,,0.00,0,weatherlink.com 1.10,2013-02-19 01:41:00,
2013-02-19 01:56:00,26.7,26.0,30.09,NE,54,0.0,-999.0,95,-99.99,,,0.00,0,weatherlink.com 1.10,2013-02-19 01:56:00,
2013-02-19 02:11:00,27.0,26.0,30.09,NE,54,3.0,-999.0,95,-99.99,,,0.00,0,weatherlink.com 1.10,2013-02-19 02:11:00,
2013-02-19 02:26:00,26.4,25.0,30.09,NE,54,1.0,-999.0,95,-99.99,,,0.00,0,weatherlink.com 1.10,2013-02-19 02:26:00,
2013-02-19 02:41:00,26.1,25.0,30.08,NE,54,0.0,-999.0,94,-99.99,,,0.00,0,weatherlink.com 1.10,2013-02-19 02:41:00,
2013-02-19 02:56:00,25.6,24.0,30.09,NE,54,0.0,-999.0,94,-99.99,,,0.00,0,weatherlink.com 1.10,2013-02-19 02:56:00,
2013-02-19 03:11:00,25.9,25.0,30.08,NE,54,0.0,-999.0,95,-99.99,,,0.00,0,weatherlink.com 1.10,2013-02-19 03:11:00,
2013-02-19 03:26:00,25.3,24.0,30.08,NE,54,0.0,-999.0,94,-99.99,,,0.00,0,weatherlink.com 1.10,2013-02-19 03:26:00,
2013-02-19 03:41:00,25.4,24.0,30.08,NE,54,0.0,-999.0,95,-99.99,,,0.00,0,weatherlink.com 1.10,2013-02-19 03:41:00,
2013-02-19 03:56:00,25.3,24.0,30.07,NE,54,0.0,-999.0,95,-99.99,,,0.00,0,weatherlink.com 1.10,2013-02-19 03:56:00,
2013-02-19 04:11:00,24.8,24.0,30.07,NE,54,0.0,-999.0,95,-99.99,,,0.00,0,weatherlink.com 1.10,2013-02-19 04:11:00,
2013-02-19 04:26:00,24.7,24.0,30.07,NE,54,0.0,-999.0,95,-99.99,,,0.00,0,weatherlink.com 1.10,2013-02-19 04:26:00,
2013-02-19 04:41:00,24.2,23.0,30.07,NE,54,0.0,-999.0,95,-99.99,,,0.00,0,weatherlink.com 1.10,2013-02-19 04:41:00,
2013-02-19 04:56:00,23.7,23.0,30.07,NE,54,0.0,-999.0,95,-99.99,,,0.00,0,weatherlink.com 1.10,2013-02-19 04:56:00,
2013-02-19 05:11:00,24.4,23.0,30.07,NE,54,0.0,-999.0,95,-99.99,,,0.00,0,weatherlink.com 1.10,2013-02-19 05:11:00,
2013-02-19 05:26:00,24.3,23.0,30.07,NE,54,1.0,-999.0,95,-99.99,,,0.00,0,weatherlink.com 1.10,2013-02-19 05:26:00,
2013-02-19 05:41:00,23.9,23.0,30.07,NE,54,0.0,-999.0,95,-99.99,,,0.00,0,weatherlink.com 1.10,2013-02-19 05:41:00,
2013-02-19 05:56:00,23.7,23.0,30.07,NE,54,0.0,-999.0,95,-99.99,,,0.00,0,weatherlink.com 1.10,2013-02-19 05:56:00,
2013-02-19 06:11:00,23.8,23.0,30.07,NE,54,0.0,-999.0,95,-99.99,,,0.00,0,weatherlink.com 1.10,2013-02-19 06:11:00,
2013-02-19 06:26:00,23.7,23.0,30.07,NE,54,0.0,-999.0,95,-99.99,,,0.00,0,weatherlink.com 1.10,2013-02-19 06:26:00,
2013-02-19 06:41:00,24.1,23.0,30.08,NE,54,0.0,-999.0,95,-99.99,,,0.00,0,weatherlink.com 1.10,2013-02-19 06:41:00,
2013-02-19 06:56:00,24.1,23.0,30.08,NE,54,0.0,-999.0,95,-99.99,,,0.00,0,weatherlink.com 1.10,2013-02-19 06:56:00,
2013-02-19 07:11:00,24.2,23.0,30.07,NE,54,0.0,-999.0,96,-99.99,,,0.00,0,weatherlink.com 1.10,2013-02-19 07:11:00,
2013-02-19 07:26:00,24.1,23.0,30.08,NE,54,0.0,-999.0,95,-99.99,,,0.00,0,weatherlink.com 1.10,2013-02-19 07:26:00,
2013-02-19 07:41:00,23.6,22.0,30.08,NNW,328,0.0,-999.0,95,-99.99,,,0.00,5,weatherlink.com 1.10,2013-02-19 07:41:00,
2013-02-19 07:56:00,23.5,22.0,30.08,NNW,328,0.0,-999.0,95,-99.99,,,0.00,12,weatherlink.com 1.10,2013-02-19 07:56:00,
2013-02-19 08:11:00,23.8,23.0,30.08,NNW,328,0.0,-999.0,95,-99.99,,,0.00,19,weatherlink.com 1.10,2013-02-19 08:11:00,
2013-02-19 08:26:00,24.0,23.0,30.08,NNW,328,1.0,-999.0,96,-99.99,,,0.00,26,weatherlink.com 1.10,2013-02-19 08:26:00,
2013-02-19 08:42:00,24.5,24.0,30.08,NNW,328,1.0,-999.0,96,-99.99,,,0.00,46,weatherlink.com 1.10,2013-02-19 08:42:00,
2013-02-19 08:56:00,26.5,26.0,30.08,NNW,328,0.0,-999.0,97,-99.99,,,0.00,120,weatherlink.com 1.10,2013-02-19 08:56:00,
2013-02-19 09:12:00,29.5,29.0,30.08,NNW,328,0.0,-999.0,97,-99.99,,,0.00,142,weatherlink.com 1.10,2013-02-19 09:12:00,
2013-02-19 09:27:00,31.9,31.0,30.08,NNW,328,3.0,-999.0,97,-99.99,,,0.00,174,weatherlink.com 1.10,2013-02-19 09:27:00,
2013-02-19 09:42:00,32.4,31.0,30.08,NNW,328,0.0,-999.0,96,-99.99,,,0.01,135,weatherlink.com 1.10,2013-02-19 09:42:00,
2013-02-19 09:56:00,32.9,32.0,30.08,North,355,0.0,-999.0,95,-99.99,,,0.01,141,weatherlink.com 1.10,2013-02-19 09:56:00,
2013-02-19 10:11:00,33.8,33.0,30.08,North,355,2.0,-999.0,96,-99.99,,,0.01,253,weatherlink.com 1.10,2013-02-19 10:11:00,
2013-02-19 10:27:00,35.1,34.0,30.08,NNE,15,4.0,-999.0,95,-99.99,,,0.01,276,weatherlink.com 1.10,2013-02-19 10:27:00,
2013-02-19 10:42:00,36.5,35.0,30.08,NNE,17,0.0,-999.0,94,-99.99,,,0.01,299,weatherlink.com 1.10,2013-02-19 10:42:00,
2013-02-19 10:57:00,38.0,36.0,30.08,NNE,19,4.0,-999.0,92,-99.99,,,0.01,318,weatherlink.com 1.10,2013-02-19 10:57:00,
2013-02-19 11:12:00,39.4,37.0,30.09,NNE,19,2.0,-999.0,89,-99.99,,,0.01,338,weatherlink.com 1.10,2013-02-19 11:12:00,
2013-02-19 11:27:00,41.0,37.0,30.09,NNE,23,1.0,-999.0,85,-99.99,,,0.01,350,weatherlink.com 1.10,2013-02-19 11:27:00,
2013-02-19 11:42:00,42.0,37.0,30.09,NNE,22,0.0,-999.0,82,-99.99,,,0.01,360,weatherlink.com 1.10,2013-02-19 11:42:00,
2013-02-19 11:57:00,42.6,37.0,30.08,North,5,4.0,-999.0,79,-99.99,,,0.01,369,weatherlink.com 1.10,2013-02-19 11:57:00,
2013-02-19 12:12:00,43.3,37.0,30.08,NNE,17,7.0,-999.0,79,-99.99,,,0.01,374,weatherlink.com 1.10,2013-02-19 12:12:00,
2013-02-19 12:27:00,44.1,37.0,30.07,NNE,12,2.0,-999.0,77,-99.99,,,0.01,378,weatherlink.com 1.10,2013-02-19 12:27:00,
2013-02-19 12:42:00,44.6,37.0,30.07,NNE,15,4.0,-999.0,75,-99.99,,,0.01,378,weatherlink.com 1.10,2013-02-19 12:42:00,
2013-02-19 12:57:00,45.3,37.0,30.07,North,9,1.0,-999.0,74,-99.99,,,0.01,371,weatherlink.com 1.10,2013-02-19 12:57:00,
2013-02-19 13:12:00,46.4,37.0,30.06,NE,43,5.0,-999.0,71,-99.99,,,0.01,367,weatherlink.com 1.10,2013-02-19 13:12:00,
2013-02-19 13:27:00,46.7,36.0,30.06,NE,40,4.0,-999.0,66,-99.99,,,0.01,359,weatherlink.com 1.10,2013-02-19 13:27:00,
2013-02-19 13:43:00,46.9,34.0,30.05,NE,38,4.0,-999.0,61,-99.99,,,0.01,348,weatherlink.com 1.10,2013-02-19 13:43:00,
2013-02-19 14:12:00,47.4,35.0,30.05,NE,38,3.0,-999.0,62,-99.99,,,0.01,315,weatherlink.com 1.10,2013-02-19 14:12:00,
2013-02-19 14:27:00,47.7,36.0,30.05,NE,36,10.0,-999.0,64,-99.99,,,0.01,290,weatherlink.com 1.10,2013-02-19 14:27:00,
2013-02-19 14:42:00,47.5,36.0,30.05,NNW,338,5.0,-999.0,65,-99.99,,,0.01,267,weatherlink.com 1.10,2013-02-19 14:42:00,
2013-02-19 14:57:00,47.5,36.0,30.04,North,5,7.0,-999.0,65,-99.99,,,0.01,246,weatherlink.com 1.10,2013-02-19 14:57:00,
2013-02-19 15:12:00,47.8,36.0,30.04,North,5,2.0,-999.0,65,-99.99,,,0.01,220,weatherlink.com 1.10,2013-02-19 15:12:00,
2013-02-19 15:27:00,47.7,36.0,30.04,North,5,6.0,-999.0,65,-99.99,,,0.01,190,weatherlink.com 1.10,2013-02-19 15:27:00,
2013-02-19 15:42:00,47.4,36.0,30.04,North,5,5.0,-999.0,66,-99.99,,,0.01,156,weatherlink.com 1.10,2013-02-19 15:42:00,
2013-02-19 15:57:00,47.3,37.0,30.04,NE,50,6.0,-999.0,67,-99.99,,,0.01,125,weatherlink.com 1.10,2013-02-19 15:57:00,
2013-02-19 16:13:00,47.3,37.0,30.04,NNW,344,1.0,-999.0,68,-99.99,,,0.01,93,weatherlink.com 1.10,2013-02-19 16:13:00,
2013-02-19 16:28:00,46.5,37.0,30.04,NNE,19,0.0,-999.0,70,-99.99,,,0.01,63,weatherlink.com 1.10,2013-02-19 16:28:00,
2013-02-19 16:43:00,45.9,37.0,30.04,NNE,19,3.0,-999.0,72,-99.99,,,0.01,40,weatherlink.com 1.10,2013-02-19 16:43:00,
2013-02-19 16:58:00,44.6,37.0,30.04,NNE,26,5.0,-999.0,74,-99.99,,,0.01,19,weatherlink.com 1.10,2013-02-19 16:58:00,
2013-02-19 17:13:00,43.2,36.0,30.04,NE,44,1.0,-999.0,76,-99.99,,,0.01,12,weatherlink.com 1.10,2013-02-19 17:13:00,
2013-02-19 17:28:00,41.7,35.0,30.04,NNW,339,3.0,-999.0,78,-99.99,,,0.01,5,weatherlink.com 1.10,2013-02-19 17:28:00,
2013-02-19 17:43:00,40.1,35.0,30.04,NNW,341,1.0,-999.0,82,-99.99,,,0.01,0,weatherlink.com 1.10,2013-02-19 17:43:00,
2013-02-19 17:58:00,39.3,35.0,30.05,North,5,4.0,-999.0,85,-99.99,,,0.01,0,weatherlink.com 1.10,2013-02-19 17:58:00,
2013-02-19 18:13:00,38.6,35.0,30.05,North,5,2.0,-999.0,87,-99.99,,,0.01,0,weatherlink.com 1.10,2013-02-19 18:13:00,
2013-02-19 18:28:00,38.7,36.0,30.06,NNE,18,4.0,-999.0,90,-99.99,,,0.01,0,weatherlink.com 1.10,2013-02-19 18:28:00,
2013-02-19 18:43:00,38.8,36.0,30.06,NE,34,9.0,-999.0,91,-99.99,,,0.01,0,weatherlink.com 1.10,2013-02-19 18:43:00,
2013-02-19 18:58:00,38.6,37.0,30.07,NNE,32,7.0,-999.0,92,-99.99,,,0.01,0,weatherlink.com 1.10,2013-02-19 18:58:00,
2013-02-19 19:13:00,38.5,36.0,30.07,North,355,6.0,-999.0,92,-99.99,,,0.01,0,weatherlink.com 1.10,2013-02-19 19:13:00,
2013-02-19 19:28:00,38.6,37.0,30.07,NNE,30,3.0,-999.0,93,-99.99,,,0.01,0,weatherlink.com 1.10,2013-02-19 19:28:00,
2013-02-19 19:43:00,38.9,37.0,30.07,NE,42,9.0,-999.0,93,-99.99,,,0.01,0,weatherlink.com 1.10,2013-02-19 19:43:00,
2013-02-19 19:58:00,39.2,37.0,30.06,NE,42,4.0,-999.0,93,-99.99,,,0.01,0,weatherlink.com 1.10,2013-02-19 19:58:00,
2013-02-19 20:13:00,39.5,38.0,30.06,NNE,20,9.0,-999.0,93,-99.99,,,0.01,0,weatherlink.com 1.10,2013-02-19 20:13:00,
2013-02-19 20:28:00,39.7,38.0,30.07,North,5,6.0,-999.0,93,-99.99,,,0.01,0,weatherlink.com 1.10,2013-02-19 20:28:00,
2013-02-19 20:43:00,39.9,38.0,30.07,ENE,64,4.0,-999.0,92,-99.99,,,0.01,0,weatherlink.com 1.10,2013-02-19 20:43:00,
2013-02-19 20:58:00,40.1,38.0,30.07,NE,53,12.0,-999.0,92,-99.99,,,0.01,0,weatherlink.com 1.10,2013-02-19 20:58:00,
2013-02-19 21:13:00,40.1,38.0,30.07,NNE,27,11.0,-999.0,91,-99.99,,,0.01,0,weatherlink.com 1.10,2013-02-19 21:13:00,
2013-02-19 21:28:00,40.1,38.0,30.07,East,80,7.0,-999.0,91,-99.99,,,0.01,0,weatherlink.com 1.10,2013-02-19 21:28:00,
2013-02-19 21:43:00,40.0,38.0,30.08,NE,40,4.0,-999.0,91,-99.99,,,0.01,0,weatherlink.com 1.10,2013-02-19 21:43:00,
2013-02-19 21:58:00,39.8,37.0,30.08,NNW,344,6.0,-999.0,91,-99.99,,,0.01,0,weatherlink.com 1.10,2013-02-19 21:58:00,
2013-02-19 22:13:00,39.4,37.0,30.08,NE,38,3.0,-999.0,90,-99.99,,,0.01,0,weatherlink.com 1.10,2013-02-19 22:13:00,
2013-02-19 22:28:00,38.9,36.0,30.08,NNE,33,6.0,-999.0,90,-99.99,,,0.01,0,weatherlink.com 1.10,2013-02-19 22:28:00,
2013-02-19 22:43:00,38.5,36.0,30.08,NNE,27,7.0,-999.0,91,-99.99,,,0.01,0,weatherlink.com 1.10,2013-02-19 22:43:00,
2013-02-19 22:58:00,38.1,36.0,30.09,NNE,18,6.0,-999.0,91,-99.99,,,0.01,0,weatherlink.com 1.10,2013-02-19 22:58:00,
2013-02-19 23:13:00,37.8,36.0,30.09,NNE,19,6.0,-999.0,92,-99.99,,,0.01,0,weatherlink.com 1.10,2013-02-19 23:13:00,
2013-02-19 23:28:00,37.4,35.0,30.09,NNE,13,6.0,-999.0,92,-99.99,,,0.01,0,weatherlink.com 1.10,2013-02-19 23:28:00,
2013-02-19 23:43:00,36.9,35.0,30.09,NE,42,4.0,-999.0,92,-99.99,,,0.01,0,weatherlink.com 1.10,2013-02-19 23:43:00,
2013-02-19 23:58:00,36.4,34.0,30.09,North,355,4.0,-999.0,92,-99.99,,,0.01,0,weatherlink.com 1.10,2013-02-19 23:58:00,